This is the latest recevied weather packets stored in our database for station/object KG4LKY-5. If no packets are shown the sender has not sent any weather packets the latest 10 day(s).
| Time | Temp. | Humidity | Pressure | Rain* | Wind** | Luminosity | Snow |
|---|---|---|---|---|---|---|---|
| 1777420558 | 21.11° C | 100% | 1015 hPa | 19.05 mm | - | - | - |
| 1777420258 | 21.67° C | 91% | 1014.8 hPa | 19.05 mm | - | - | - |
| 1777419958 | 21.67° C | 94% | 1014.6 hPa | 19.05 mm | - | - | - |
| 1777419657 | 21.11° C | 92% | 1014.4 hPa | 19.05 mm | - | - | - |
| 1777419357 | 21.11° C | 96% | 1014.3 hPa | 19.05 mm | - | - | - |
| 1777419057 | 21.11° C | 97% | 1014.5 hPa | 19.05 mm | - | - | - |
| 1777418757 | 20.56° C | 97% | 1014.6 hPa | 19.05 mm | - | - | - |
| 1777418155 | 21.67° C | 82% | 1014.8 hPa | 19.05 mm | - | - | - |
| 1777416351 | 21.67° C | 76% | 1014.9 hPa | 19.05 mm | - | - | - |
| 1777415750 | 22.22° C | 76% | 1014.8 hPa | 19.05 mm | - | - | - |
| 1777415450 | 22.22° C | 76% | 1014.9 hPa | 19.05 mm | - | - | - |
| 1777415150 | 23.33° C | 75% | 1014.9 hPa | 19.05 mm | - | - | - |
| 1777414850 | 23.33° C | 68% | 1014.8 hPa | 19.05 mm | - | - | - |
| 1777414549 | 23.89° C | 70% | 1014.8 hPa | 19.05 mm | - | - | - |
| 1777414249 | 22.78° C | 75% | 1014.8 hPa | 19.05 mm | - | - | - |
| 1777413648 | 22.78° C | 78% | 1014.7 hPa | 19.05 mm | - | - | - |
| 1777413348 | 22.78° C | 82% | 1014.6 hPa | 19.05 mm | - | - | - |
| 1777413048 | 23.89° C | 77% | 1014.5 hPa | 19.05 mm | - | - | - |
| 1777412147 | 23.33° C | 79% | 1014.9 hPa | 19.05 mm | - | - | - |
| 1777411847 | 23.89° C | 74% | 1015.1 hPa | 19.05 mm | - | - | - |
| 1777411546 | 22.22° C | 82% | 1015.2 hPa | 19.05 mm | - | - | - |
| 1777411246 | 23.33° C | 77% | 1015.6 hPa | 19.05 mm | - | - | - |
| 1777410946 | 22.22° C | 79% | 1015.8 hPa | 19.05 mm | - | - | - |
| 1777410645 | 22.22° C | 79% | 1016 hPa | 19.05 mm | - | - | - |
| 1777410345 | 22.22° C | 81% | 1016 hPa | 19.05 mm | - | - | - |
* Rain since midnight (hover to see other rain measurements)
** Current wind speed in m/s (hover to see current wind gust speed)